sensor_id;sensor_type;location;lat;lon;timestamp;pressure;altitude;pressure_sealevel;temperature;humidity
46392;BME280;32098;49.448;7.904;2022-12-13T00:01:33;97574.78;;;-6.43;77.16
46392;BME280;32098;49.448;7.904;2022-12-13T00:04:05;97548.00;;;-6.53;77.49
46392;BME280;32098;49.448;7.904;2022-12-13T00:06:33;97565.38;;;-6.44;78.32
46392;BME280;32098;49.448;7.904;2022-12-13T00:09:00;97560.59;;;-6.58;79.25
46392;BME280;32098;49.448;7.904;2022-12-13T00:11:27;97516.34;;;-6.75;79.89
46392;BME280;32098;49.448;7.904;2022-12-13T00:14:01;97486.19;;;-6.86;78.10
46392;BME280;32098;49.448;7.904;2022-12-13T00:16:28;97556.19;;;-6.38;78.31
46392;BME280;32098;49.448;7.904;2022-12-13T00:18:57;97546.06;;;-6.32;78.02
46392;BME280;32098;49.448;7.904;2022-12-13T00:21:26;97534.59;;;-6.39;78.07
46392;BME280;32098;49.448;7.904;2022-12-13T00:23:54;97546.84;;;-6.21;78.11
46392;BME280;32098;49.448;7.904;2022-12-13T00:26:28;97547.91;;;-6.14;78.22
46392;BME280;32098;49.448;7.904;2022-12-13T00:29:01;97508.47;;;-6.37;77.80
46392;BME280;32098;49.448;7.904;2022-12-13T00:31:30;97441.22;;;-6.77;77.48
46392;BME280;32098;49.448;7.904;2022-12-13T00:34:18;97535.59;;;-6.12;77.26
46392;BME280;32098;49.448;7.904;2022-12-13T00:36:46;97523.19;;;-6.18;76.95
46392;BME280;32098;49.448;7.904;2022-12-13T00:39:14;97540.09;;;-6.05;77.45
46392;BME280;32098;49.448;7.904;2022-12-13T00:41:42;97517.03;;;-6.17;76.82
46392;BME280;32098;49.448;7.904;2022-12-13T00:44:10;97541.31;;;-5.99;77.47
46392;BME280;32098;49.448;7.904;2022-12-13T00:46:38;97522.59;;;-6.12;77.00
46392;BME280;32098;49.448;7.904;2022-12-13T00:49:05;97538.31;;;-6.04;76.67
46392;BME280;32098;49.448;7.904;2022-12-13T00:51:34;97513.13;;;-6.31;77.24
46392;BME280;32098;49.448;7.904;2022-12-13T00:54:02;97532.59;;;-6.17;77.37
46392;BME280;32098;49.448;7.904;2022-12-13T00:56:30;97536.19;;;-6.18;77.27
46392;BME280;32098;49.448;7.904;2022-12-13T00:58:58;97534.25;;;-6.16;77.19
46392;BME280;32098;49.448;7.904;2022-12-13T01:01:29;97534.66;;;-6.11;76.41
46392;BME280;32098;49.448;7.904;2022-12-13T01:03:59;97533.41;;;-6.07;76.98
46392;BME280;32098;49.448;7.904;2022-12-13T01:06:42;97498.72;;;-6.26;76.63
46392;BME280;32098;49.448;7.904;2022-12-13T01:09:22;97528.59;;;-6.02;76.75
46392;BME280;32098;49.448;7.904;2022-12-13T01:11:59;97523.53;;;-6.04;75.33
46392;BME280;32098;49.448;7.904;2022-12-13T01:14:27;97508.00;;;-6.13;75.68
46392;BME280;32098;49.448;7.904;2022-12-13T01:16:55;97421.53;;;-6.70;75.79
46392;BME280;32098;49.448;7.904;2022-12-13T01:19:25;97507.16;;;-6.14;76.61
46392;BME280;32098;49.448;7.904;2022-12-13T01:21:54;97443.88;;;-6.50;76.17
46392;BME280;32098;49.448;7.904;2022-12-13T01:24:21;97524.66;;;-6.06;75.73
46392;BME280;32098;49.448;7.904;2022-12-13T01:26:51;97503.50;;;-6.21;75.50
46392;BME280;32098;49.448;7.904;2022-12-13T01:29:23;97424.50;;;-6.65;75.91
46392;BME280;32098;49.448;7.904;2022-12-13T01:31:53;97516.19;;;-6.08;76.35
46392;BME280;32098;49.448;7.904;2022-12-13T01:34:22;97498.44;;;-6.22;77.03
46392;BME280;32098;49.448;7.904;2022-12-13T01:36:53;97477.59;;;-6.40;77.08
46392;BME280;32098;49.448;7.904;2022-12-13T01:39:25;97391.13;;;-6.87;77.70
46392;BME280;32098;49.448;7.904;2022-12-13T01:41:54;97509.13;;;-6.26;76.36
46392;BME280;32098;49.448;7.904;2022-12-13T01:44:57;97524.94;;;-6.09;76.45
46392;BME280;32098;49.448;7.904;2022-12-13T01:49:56;97525.09;;;-6.20;76.32
46392;BME280;32098;49.448;7.904;2022-12-13T01:52:26;97516.19;;;-6.18;76.74
46392;BME280;32098;49.448;7.904;2022-12-13T01:54:55;97451.53;;;-6.58;76.36
46392;BME280;32098;49.448;7.904;2022-12-13T01:57:30;97462.72;;;-6.48;76.65
46392;BME280;32098;49.448;7.904;2022-12-13T01:59:58;97500.09;;;-6.21;76.48
46392;BME280;32098;49.448;7.904;2022-12-13T02:02:26;97452.78;;;-6.62;76.81
46392;BME280;32098;49.448;7.904;2022-12-13T02:05:12;97477.06;;;-6.44;77.05
46392;BME280;32098;49.448;7.904;2022-12-13T02:07:43;97489.66;;;-6.49;76.82
46392;BME280;32098;49.448;7.904;2022-12-13T02:10:11;97502.22;;;-6.44;77.45
46392;BME280;32098;49.448;7.904;2022-12-13T02:12:39;97501.22;;;-6.34;77.31
46392;BME280;32098;49.448;7.904;2022-12-13T02:15:10;97457.03;;;-6.61;77.09
46392;BME280;32098;49.448;7.904;2022-12-13T02:21:17;97485.66;;;-6.43;76.54
46392;BME280;32098;49.448;7.904;2022-12-13T02:34:56;97469.09;;;-6.33;76.14
46392;BME280;32098;49.448;7.904;2022-12-13T02:37:37;97484.78;;;-6.25;76.56
46392;BME280;32098;49.448;7.904;2022-12-13T02:40:22;97470.72;;;-6.32;76.55
46392;BME280;32098;49.448;7.904;2022-12-13T02:43:16;97491.63;;;-6.23;76.46
46392;BME280;32098;49.448;7.904;2022-12-13T02:45:49;97506.19;;;-6.03;76.93
46392;BME280;32098;49.448;7.904;2022-12-13T02:48:27;97495.69;;;-6.11;76.45
46392;BME280;32098;49.448;7.904;2022-12-13T02:50:57;97496.19;;;-6.08;76.85
46392;BME280;32098;49.448;7.904;2022-12-13T02:53:29;97497.88;;;-6.16;75.55
46392;BME280;32098;49.448;7.904;2022-12-13T02:55:59;97507.72;;;-6.20;74.90
46392;BME280;32098;49.448;7.904;2022-12-13T02:58:32;97500.44;;;-6.44;74.16
46392;BME280;32098;49.448;7.904;2022-12-13T03:01:21;97498.00;;;-6.55;74.63
46392;BME280;32098;49.448;7.904;2022-12-13T03:06:55;97433.53;;;-7.34;74.74
46392;BME280;32098;49.448;7.904;2022-12-13T03:09:41;97504.34;;;-6.96;74.71
46392;BME280;32098;49.448;7.904;2022-12-13T03:15:32;97492.59;;;-6.90;77.44
46392;BME280;32098;49.448;7.904;2022-12-13T03:18:07;97451.41;;;-7.22;76.74
46392;BME280;32098;49.448;7.904;2022-12-13T03:20:53;97485.25;;;-7.04;76.20
46392;BME280;32098;49.448;7.904;2022-12-13T03:23:26;97451.41;;;-7.31;75.75
46392;BME280;32098;49.448;7.904;2022-12-13T03:26:01;97467.22;;;-7.06;76.67
46392;BME280;32098;49.448;7.904;2022-12-13T03:28:30;97448.41;;;-7.27;77.17
46392;BME280;32098;49.448;7.904;2022-12-13T03:30:57;97447.72;;;-7.19;76.99
46392;BME280;32098;49.448;7.904;2022-12-13T03:33:23;97478.84;;;-7.19;75.77
46392;BME280;32098;49.448;7.904;2022-12-13T03:35:50;97432.56;;;-7.43;76.42
46392;BME280;32098;49.448;7.904;2022-12-13T03:38:17;97491.25;;;-7.13;77.36
46392;BME280;32098;49.448;7.904;2022-12-13T03:40:51;97433.66;;;-7.45;78.07
46392;BME280;32098;49.448;7.904;2022-12-13T03:43:18;97429.59;;;-7.38;77.89
46392;BME280;32098;49.448;7.904;2022-12-13T03:45:49;97462.19;;;-7.17;78.16
46392;BME280;32098;49.448;7.904;2022-12-13T03:48:17;97441.56;;;-7.18;77.53
46392;BME280;32098;49.448;7.904;2022-12-13T03:50:49;97469.09;;;-6.79;77.09
46392;BME280;32098;49.448;7.904;2022-12-13T03:53:21;97463.94;;;-6.88;76.62
46392;BME280;32098;49.448;7.904;2022-12-13T03:56:01;97480.59;;;-6.91;75.64
46392;BME280;32098;49.448;7.904;2022-12-13T03:58:33;97374.72;;;-7.63;74.94
46392;BME280;32098;49.448;7.904;2022-12-13T04:01:05;97482.78;;;-6.96;74.59
46392;BME280;32098;49.448;7.904;2022-12-13T04:03:33;97448.25;;;-7.06;74.43
46392;BME280;32098;49.448;7.904;2022-12-13T04:06:00;97464.72;;;-6.88;74.77
46392;BME280;32098;49.448;7.904;2022-12-13T04:08:26;97444.81;;;-6.97;74.99
46392;BME280;32098;49.448;7.904;2022-12-13T04:10:55;97468.81;;;-6.76;75.26
46392;BME280;32098;49.448;7.904;2022-12-13T04:13:35;97455.53;;;-6.73;75.23
46392;BME280;32098;49.448;7.904;2022-12-13T04:16:02;97436.03;;;-6.77;74.95
46392;BME280;32098;49.448;7.904;2022-12-13T04:18:29;97410.41;;;-6.99;74.44
46392;BME280;32098;49.448;7.904;2022-12-13T04:20:56;97438.78;;;-6.88;74.55
46392;BME280;32098;49.448;7.904;2022-12-13T04:23:24;97391.72;;;-7.12;74.77
46392;BME280;32098;49.448;7.904;2022-12-13T04:25:52;97391.34;;;-7.17;74.21
46392;BME280;32098;49.448;7.904;2022-12-13T04:28:20;97414.53;;;-7.06;74.63
46392;BME280;32098;49.448;7.904;2022-12-13T04:30:51;97462.25;;;-6.80;74.79
46392;BME280;32098;49.448;7.904;2022-12-13T04:33:21;97458.44;;;-6.76;74.48
46392;BME280;32098;49.448;7.904;2022-12-13T04:35:48;97437.59;;;-6.94;74.63
46392;BME280;32098;49.448;7.904;2022-12-13T04:38:16;97393.53;;;-7.22;73.89
46392;BME280;32098;49.448;7.904;2022-12-13T04:40:43;97456.94;;;-6.88;75.18
46392;BME280;32098;49.448;7.904;2022-12-13T04:43:13;97423.56;;;-7.20;75.72
46392;BME280;32098;49.448;7.904;2022-12-13T04:45:40;97419.47;;;-7.32;74.49
46392;BME280;32098;49.448;7.904;2022-12-13T04:48:07;97359.59;;;-7.77;74.16
46392;BME280;32098;49.448;7.904;2022-12-13T04:50:35;97379.38;;;-7.66;74.58
46392;BME280;32098;49.448;7.904;2022-12-13T04:53:03;97427.00;;;-7.38;76.30
46392;BME280;32098;49.448;7.904;2022-12-13T04:55:35;97423.03;;;-7.62;77.30
46392;BME280;32098;49.448;7.904;2022-12-13T04:58:03;97433.66;;;-7.55;77.44
46392;BME280;32098;49.448;7.904;2022-12-13T05:00:34;97378.28;;;-7.83;77.39
46392;BME280;32098;49.448;7.904;2022-12-13T05:03:02;97385.94;;;-7.81;77.30
46392;BME280;32098;49.448;7.904;2022-12-13T05:05:31;97407.75;;;-7.74;78.01
46392;BME280;32098;49.448;7.904;2022-12-13T05:07:57;97451.00;;;-7.36;77.64
46392;BME280;32098;49.448;7.904;2022-12-13T05:10:24;97399.81;;;-7.73;77.46
46392;BME280;32098;49.448;7.904;2022-12-13T05:13:04;97446.09;;;-7.39;76.72
46392;BME280;32098;49.448;7.904;2022-12-13T05:15:33;97419.06;;;-7.46;76.59
46392;BME280;32098;49.448;7.904;2022-12-13T05:18:01;97456.31;;;-7.28;76.65
46392;BME280;32098;49.448;7.904;2022-12-13T05:20:39;97403.53;;;-7.56;77.50
46392;BME280;32098;49.448;7.904;2022-12-13T05:23:07;97426.84;;;-7.46;77.19
46392;BME280;32098;49.448;7.904;2022-12-13T05:25:34;97454.41;;;-7.26;77.42
46392;BME280;32098;49.448;7.904;2022-12-13T05:28:04;97456.31;;;-7.38;77.36
46392;BME280;32098;49.448;7.904;2022-12-13T05:30:51;97411.84;;;-7.53;77.25
46392;BME280;32098;49.448;7.904;2022-12-13T05:33:21;97450.59;;;-7.32;76.34
46392;BME280;32098;49.448;7.904;2022-12-13T05:35:48;97426.28;;;-7.50;76.62
46392;BME280;32098;49.448;7.904;2022-12-13T05:38:23;97408.84;;;-7.29;87.26
46392;BME280;32098;49.448;7.904;2022-12-13T05:40:49;97451.41;;;-4.61;99.50
46392;BME280;32098;49.448;7.904;2022-12-13T05:43:16;97439.81;;;-4.66;95.95
46392;BME280;32098;49.448;7.904;2022-12-13T05:45:48;97395.38;;;-3.81;98.94
46392;BME280;32098;49.448;7.904;2022-12-13T05:48:15;97379.44;;;-3.54;94.25
46392;BME280;32098;49.448;7.904;2022-12-13T05:50:50;97343.78;;;-2.74;90.15
46392;BME280;32098;49.448;7.904;2022-12-13T05:53:39;97419.06;;;-0.48;82.44
46392;BME280;32098;49.448;7.904;2022-12-13T05:56:09;97388.69;;;-0.94;56.24
46392;BME280;32098;49.448;7.904;2022-12-13T05:58:39;97356.41;;;-2.39;56.98
46392;BME280;32098;49.448;7.904;2022-12-13T06:01:09;97420.38;;;-2.66;59.46
46392;BME280;32098;49.448;7.904;2022-12-13T06:03:39;97434.34;;;-3.80;61.87
46392;BME280;32098;49.448;7.904;2022-12-13T06:06:07;97435.56;;;-4.42;63.73
46392;BME280;32098;49.448;7.904;2022-12-13T06:08:35;97322.50;;;-5.42;65.25
46392;BME280;32098;49.448;7.904;2022-12-13T06:11:04;97439.38;;;-5.23;66.76
46392;BME280;32098;49.448;7.904;2022-12-13T06:13:41;97444.47;;;-5.39;69.11
46392;BME280;32098;49.448;7.904;2022-12-13T06:16:11;97373.50;;;-6.02;69.54
46392;BME280;32098;49.448;7.904;2022-12-13T06:18:50;97433.38;;;-5.76;70.23
46392;BME280;32098;49.448;7.904;2022-12-13T06:21:33;97337.00;;;-6.82;71.48
46392;BME280;32098;49.448;7.904;2022-12-13T06:24:11;97415.38;;;-6.32;72.12
46392;BME280;32098;49.448;7.904;2022-12-13T06:26:38;97453.56;;;-6.15;72.59
46392;BME280;32098;49.448;7.904;2022-12-13T06:29:05;97306.53;;;-7.07;71.97
46392;BME280;32098;49.448;7.904;2022-12-13T06:31:31;97450.84;;;-6.13;72.37
46392;BME280;32098;49.448;7.904;2022-12-13T06:34:02;97419.41;;;-6.47;71.80
46392;BME280;32098;49.448;7.904;2022-12-13T06:36:41;97383.06;;;-6.84;70.80
46392;BME280;32098;49.448;7.904;2022-12-13T06:39:07;97351.50;;;-7.35;71.08
46392;BME280;32098;49.448;7.904;2022-12-13T06:41:37;97439.19;;;-6.83;71.17
46392;BME280;32098;49.448;7.904;2022-12-13T06:44:05;97442.75;;;-6.84;71.65
46392;BME280;32098;49.448;7.904;2022-12-13T06:46:32;97463.22;;;-6.71;71.39
46392;BME280;32098;49.448;7.904;2022-12-13T06:48:59;97445.63;;;-6.87;71.71
46392;BME280;32098;49.448;7.904;2022-12-13T06:51:27;97457.34;;;-6.83;72.17
46392;BME280;32098;49.448;7.904;2022-12-13T06:53:59;97462.53;;;-6.83;71.58
46392;BME280;32098;49.448;7.904;2022-12-13T06:56:29;97463.13;;;-6.89;71.67
46392;BME280;32098;49.448;7.904;2022-12-13T06:58:56;97301.22;;;-7.81;70.73
46392;BME280;32098;49.448;7.904;2022-12-13T07:01:29;97368.03;;;-7.65;71.01
46392;BME280;32098;49.448;7.904;2022-12-13T07:04:04;97448.69;;;-7.39;70.17
46392;BME280;32098;49.448;7.904;2022-12-13T07:06:52;97467.25;;;-7.44;71.24
46392;BME280;32098;49.448;7.904;2022-12-13T07:09:19;97474.09;;;-7.33;71.31
46392;BME280;32098;49.448;7.904;2022-12-13T07:11:47;97395.06;;;-7.87;70.78
46392;BME280;32098;49.448;7.904;2022-12-13T07:14:18;97383.84;;;-8.06;71.30
46392;BME280;32098;49.448;7.904;2022-12-13T07:16:47;97470.38;;;-7.60;71.33
46392;BME280;32098;49.448;7.904;2022-12-13T07:19:13;97454.97;;;-7.61;71.17
46392;BME280;32098;49.448;7.904;2022-12-13T07:21:51;97433.78;;;-7.76;72.61
46392;BME280;32098;49.448;7.904;2022-12-13T07:24:17;97477.34;;;-7.41;73.21
46392;BME280;32098;49.448;7.904;2022-12-13T07:26:45;97393.16;;;-7.75;72.50
46392;BME280;32098;49.448;7.904;2022-12-13T07:29:12;97424.66;;;-7.61;71.87
46392;BME280;32098;49.448;7.904;2022-12-13T07:31:48;97422.47;;;-7.75;71.95
46392;BME280;32098;49.448;7.904;2022-12-13T07:34:15;97460.16;;;-7.51;72.26
46392;BME280;32098;49.448;7.904;2022-12-13T07:36:43;97454.13;;;-7.62;72.40
46392;BME280;32098;49.448;7.904;2022-12-13T07:39:10;97476.50;;;-7.61;72.11
46392;BME280;32098;49.448;7.904;2022-12-13T07:41:37;97412.22;;;-7.95;72.15
46392;BME280;32098;49.448;7.904;2022-12-13T07:44:04;97503.81;;;-7.37;73.31
46392;BME280;32098;49.448;7.904;2022-12-13T07:46:32;97367.09;;;-8.12;73.67
46392;BME280;32098;49.448;7.904;2022-12-13T07:49:02;97494.69;;;-7.32;73.23
46392;BME280;32098;49.448;7.904;2022-12-13T07:51:33;97499.19;;;-7.24;73.28
46392;BME280;32098;49.448;7.904;2022-12-13T07:54:00;97450.03;;;-7.35;73.34
46392;BME280;32098;49.448;7.904;2022-12-13T07:56:33;97475.44;;;-7.20;73.56
46392;BME280;32098;49.448;7.904;2022-12-13T07:59:00;97421.38;;;-7.53;73.72
46392;BME280;32098;49.448;7.904;2022-12-13T08:01:30;97472.69;;;-7.18;73.82
46392;BME280;32098;49.448;7.904;2022-12-13T08:03:57;97477.59;;;-7.15;73.52
46392;BME280;32098;49.448;7.904;2022-12-13T08:06:24;97459.03;;;-7.11;73.95
46392;BME280;32098;49.448;7.904;2022-12-13T08:08:55;97474.31;;;-6.98;72.93
46392;BME280;32098;49.448;7.904;2022-12-13T08:11:21;97464.34;;;-7.03;72.38
46392;BME280;32098;49.448;7.904;2022-12-13T08:13:48;97487.41;;;-6.71;72.37
46392;BME280;32098;49.448;7.904;2022-12-13T08:16:16;97491.44;;;-6.49;72.94
46392;BME280;32098;49.448;7.904;2022-12-13T08:18:58;97498.72;;;-6.26;72.80
46392;BME280;32098;49.448;7.904;2022-12-13T08:21:40;97485.66;;;-6.06;72.66
46392;BME280;32098;49.448;7.904;2022-12-13T08:24:20;97455.31;;;-6.06;72.29
46392;BME280;32098;49.448;7.904;2022-12-13T08:26:47;97493.69;;;-5.73;72.07
46392;BME280;32098;49.448;7.904;2022-12-13T08:29:14;97490.09;;;-5.44;72.74
46392;BME280;32098;49.448;7.904;2022-12-13T08:31:58;97486.38;;;-5.24;72.23
46392;BME280;32098;49.448;7.904;2022-12-13T08:34:26;97484.53;;;-5.14;71.70
46392;BME280;32098;49.448;7.904;2022-12-13T08:36:53;97410.94;;;-5.42;71.34
46392;BME280;32098;49.448;7.904;2022-12-13T08:39:33;97482.75;;;-4.96;70.74
46392;BME280;32098;49.448;7.904;2022-12-13T08:42:15;97494.34;;;-4.90;69.86
46392;BME280;32098;49.448;7.904;2022-12-13T08:44:50;97487.50;;;-4.91;69.92
46392;BME280;32098;49.448;7.904;2022-12-13T08:47:23;97494.19;;;-5.07;69.29
46392;BME280;32098;49.448;7.904;2022-12-13T08:49:54;97494.34;;;-5.08;70.58
46392;BME280;32098;49.448;7.904;2022-12-13T08:52:30;97485.06;;;-5.11;70.73
46392;BME280;32098;49.448;7.904;2022-12-13T08:54:57;97456.00;;;-5.24;70.96
46392;BME280;32098;49.448;7.904;2022-12-13T08:57:24;97467.13;;;-5.31;70.66
46392;BME280;32098;49.448;7.904;2022-12-13T08:59:50;97502.00;;;-5.07;71.18
46392;BME280;32098;49.448;7.904;2022-12-13T09:02:17;97500.22;;;-5.06;71.01
46392;BME280;32098;49.448;7.904;2022-12-13T09:04:44;97506.53;;;-5.09;71.30
46392;BME280;32098;49.448;7.904;2022-12-13T09:07:11;97477.31;;;-5.20;71.13
46392;BME280;32098;49.448;7.904;2022-12-13T09:09:38;97470.94;;;-5.26;70.98
46392;BME280;32098;49.448;7.904;2022-12-13T09:12:06;97455.91;;;-5.32;71.59
46392;BME280;32098;49.448;7.904;2022-12-13T09:14:37;97484.38;;;-5.13;71.06
46392;BME280;32098;49.448;7.904;2022-12-13T09:17:13;97459.31;;;-5.14;71.50
46392;BME280;32098;49.448;7.904;2022-12-13T09:19:51;97496.88;;;-4.99;71.31
46392;BME280;32098;49.448;7.904;2022-12-13T09:22:24;97449.13;;;-5.60;70.16
46392;BME280;32098;49.448;7.904;2022-12-13T09:24:58;97486.59;;;-5.35;70.57
46392;BME280;32098;49.448;7.904;2022-12-13T09:27:29;97502.59;;;-5.13;70.65
46392;BME280;32098;49.448;7.904;2022-12-13T09:30:07;97493.44;;;-4.99;70.56
46392;BME280;32098;49.448;7.904;2022-12-13T09:32:42;97482.88;;;-5.15;70.93
46392;BME280;32098;49.448;7.904;2022-12-13T09:35:15;97486.31;;;-5.15;71.75
46392;BME280;32098;49.448;7.904;2022-12-13T09:37:42;97487.28;;;-4.98;71.88
46392;BME280;32098;49.448;7.904;2022-12-13T09:40:18;97491.50;;;-5.15;70.90
46392;BME280;32098;49.448;7.904;2022-12-13T09:42:54;97499.69;;;-4.92;71.25
46392;BME280;32098;49.448;7.904;2022-12-13T09:45:44;97486.53;;;-5.08;70.68
46392;BME280;32098;49.448;7.904;2022-12-13T09:48:16;97449.44;;;-5.28;70.54
46392;BME280;32098;49.448;7.904;2022-12-13T09:50:49;97504.28;;;-4.86;71.47
46392;BME280;32098;49.448;7.904;2022-12-13T09:53:36;97495.66;;;-4.86;71.46
46392;BME280;32098;49.448;7.904;2022-12-13T09:56:10;97450.78;;;-5.24;70.96
46392;BME280;32098;49.448;7.904;2022-12-13T09:58:37;97470.94;;;-5.43;71.59
46392;BME280;32098;49.448;7.904;2022-12-13T10:01:04;97464.09;;;-5.27;71.91
46392;BME280;32098;49.448;7.904;2022-12-13T10:03:31;97484.34;;;-5.48;71.99
46392;BME280;32098;49.448;7.904;2022-12-13T10:06:16;97476.94;;;-5.43;71.51
46392;BME280;32098;49.448;7.904;2022-12-13T10:08:54;97445.66;;;-5.51;71.03
46392;BME280;32098;49.448;7.904;2022-12-13T10:11:25;97475.16;;;-5.42;72.29
46392;BME280;32098;49.448;7.904;2022-12-13T10:14:11;97474.94;;;-5.49;73.03
46392;BME280;32098;49.448;7.904;2022-12-13T10:16:45;97454.56;;;-5.71;72.03
46392;BME280;32098;49.448;7.904;2022-12-13T10:19:29;97471.22;;;-5.46;72.01
46392;BME280;32098;49.448;7.904;2022-12-13T10:21:59;97439.47;;;-5.50;72.40
46392;BME280;32098;49.448;7.904;2022-12-13T10:24:46;97469.06;;;-5.16;72.50
46392;BME280;32098;49.448;7.904;2022-12-13T10:27:15;97462.75;;;-5.31;71.87
46392;BME280;32098;49.448;7.904;2022-12-13T10:29:59;97470.78;;;-5.24;71.74
46392;BME280;32098;49.448;7.904;2022-12-13T10:32:27;97422.00;;;-5.40;71.05
46392;BME280;32098;49.448;7.904;2022-12-13T10:35:30;97440.81;;;-5.11;71.91
46392;BME280;32098;49.448;7.904;2022-12-13T10:38:19;97448.38;;;-5.17;71.04
46392;BME280;32098;49.448;7.904;2022-12-13T10:40:57;97445.41;;;-5.40;71.25
46392;BME280;32098;49.448;7.904;2022-12-13T10:43:27;97447.19;;;-5.23;70.97
46392;BME280;32098;49.448;7.904;2022-12-13T10:46:00;97449.00;;;-5.06;71.10
46392;BME280;32098;49.448;7.904;2022-12-13T10:48:34;97446.34;;;-4.88;71.57
46392;BME280;32098;49.448;7.904;2022-12-13T10:51:05;97442.44;;;-5.10;71.10
46392;BME280;32098;49.448;7.904;2022-12-13T10:53:38;97436.72;;;-5.13;69.09
46392;BME280;32098;49.448;7.904;2022-12-13T10:56:14;97414.94;;;-5.30;70.16
46392;BME280;32098;49.448;7.904;2022-12-13T10:59:07;97437.31;;;-5.19;69.14
46392;BME280;32098;49.448;7.904;2022-12-13T11:01:43;97441.09;;;-5.14;69.23
46392;BME280;32098;49.448;7.904;2022-12-13T11:04:31;97432.31;;;-5.13;69.13
46392;BME280;32098;49.448;7.904;2022-12-13T11:07:00;97422.38;;;-5.17;68.54
46392;BME280;32098;49.448;7.904;2022-12-13T11:09:32;97380.56;;;-5.59;68.53
46392;BME280;32098;49.448;7.904;2022-12-13T11:12:14;97393.03;;;-5.45;67.56
46392;BME280;32098;49.448;7.904;2022-12-13T11:14:53;97407.75;;;-5.36;67.16
46392;BME280;32098;49.448;7.904;2022-12-13T11:17:24;97424.75;;;-5.06;67.29
46392;BME280;32098;49.448;7.904;2022-12-13T11:22:29;97419.94;;;-5.19;67.66
46392;BME280;32098;49.448;7.904;2022-12-13T11:25:03;97408.88;;;-5.38;65.92
46392;BME280;32098;49.448;7.904;2022-12-13T11:31:28;97344.25;;;-5.43;65.58
46392;BME280;32098;49.448;7.904;2022-12-13T11:36:55;97383.22;;;-5.08;66.09
46392;BME280;32098;49.448;7.904;2022-12-13T11:42:18;97359.97;;;-5.09;64.38
46392;BME280;32098;49.448;7.904;2022-12-13T11:45:19;97388.13;;;-5.05;64.38
46392;BME280;32098;49.448;7.904;2022-12-13T11:50:34;97379.03;;;-4.75;65.03
46392;BME280;32098;49.448;7.904;2022-12-13T12:01:45;97355.97;;;-4.70;63.10
46392;BME280;32098;49.448;7.904;2022-12-13T12:05:09;97374.31;;;-4.79;61.56
46392;BME280;32098;49.448;7.904;2022-12-13T12:07:16;97346.59;;;-4.88;63.06
46392;BME280;32098;49.448;7.904;2022-12-13T12:12:43;97366.50;;;-4.79;61.32
46392;BME280;32098;49.448;7.904;2022-12-13T12:15:24;97245.19;;;-5.83;61.64
46392;BME280;32098;49.448;7.904;2022-12-13T12:17:54;97352.88;;;-4.99;62.34
46392;BME280;32098;49.448;7.904;2022-12-13T12:20:43;97371.16;;;-4.91;61.17
46392;BME280;32098;49.448;7.904;2022-12-13T12:23:38;97366.50;;;-4.79;62.64
46392;BME280;32098;49.448;7.904;2022-12-13T12:26:16;97330.53;;;-5.10;61.89
46392;BME280;32098;49.448;7.904;2022-12-13T12:32:00;97364.88;;;-4.80;61.08
46392;BME280;32098;49.448;7.904;2022-12-13T12:37:34;97358.59;;;-4.62;61.58
46392;BME280;32098;49.448;7.904;2022-12-13T12:40:34;97361.03;;;-4.60;62.14
46392;BME280;32098;49.448;7.904;2022-12-13T12:43:32;97356.78;;;-4.69;62.08
46392;BME280;32098;49.448;7.904;2022-12-13T12:46:35;97362.63;;;-4.67;62.02
46392;BME280;32098;49.448;7.904;2022-12-13T12:49:52;97366.25;;;-4.68;61.45
46392;BME280;32098;49.448;7.904;2022-12-13T12:52:38;97317.91;;;-4.97;61.58
46392;BME280;32098;49.448;7.904;2022-12-13T12:55:15;97351.16;;;-4.82;62.01
46392;BME280;32098;49.448;7.904;2022-12-13T12:57:58;97371.09;;;-4.73;62.79
46392;BME280;32098;49.448;7.904;2022-12-13T13:00:29;97314.38;;;-4.87;62.49
46392;BME280;32098;49.448;7.904;2022-12-13T13:03:20;97360.47;;;-4.80;62.28
46392;BME280;32098;49.448;7.904;2022-12-13T13:05:55;97339.09;;;-4.91;62.34
46392;BME280;32098;49.448;7.904;2022-12-13T13:08:42;97361.22;;;-4.87;61.89
46392;BME280;32098;49.448;7.904;2022-12-13T13:11:20;97366.41;;;-4.96;62.42
46392;BME280;32098;49.448;7.904;2022-12-13T13:16:38;97354.56;;;-5.16;61.95
46392;BME280;32098;49.448;7.904;2022-12-13T13:21:52;97374.00;;;-4.76;61.92
46392;BME280;32098;49.448;7.904;2022-12-13T13:24:31;97312.56;;;-5.21;62.48
46392;BME280;32098;49.448;7.904;2022-12-13T13:29:44;97324.66;;;-5.12;62.65
46392;BME280;32098;49.448;7.904;2022-12-13T13:37:59;97341.09;;;-4.85;62.31
46392;BME280;32098;49.448;7.904;2022-12-13T13:40:27;97356.66;;;-4.93;62.23
46392;BME280;32098;49.448;7.904;2022-12-13T13:57:59;97348.59;;;-5.08;63.01
46392;BME280;32098;49.448;7.904;2022-12-13T14:00:53;97342.63;;;-5.01;63.49
46392;BME280;32098;49.448;7.904;2022-12-13T14:04:04;97349.75;;;-5.03;63.49
46392;BME280;32098;49.448;7.904;2022-12-13T14:06:50;97353.44;;;-5.13;64.02
46392;BME280;32098;49.448;7.904;2022-12-13T14:22:06;97355.28;;;-5.06;65.61
46392;BME280;32098;49.448;7.904;2022-12-13T14:27:47;97353.34;;;-5.04;68.77
46392;BME280;32098;49.448;7.904;2022-12-13T14:30:21;97336.34;;;-5.16;69.16
46392;BME280;32098;49.448;7.904;2022-12-13T14:32:54;97269.41;;;-5.57;68.17
46392;BME280;32098;49.448;7.904;2022-12-13T14:35:28;97343.72;;;-4.77;67.82
46392;BME280;32098;49.448;7.904;2022-12-13T14:38:00;97249.97;;;-5.45;68.84
46392;BME280;32098;49.448;7.904;2022-12-13T14:40:30;97339.84;;;-5.25;69.60
46392;BME280;32098;49.448;7.904;2022-12-13T14:42:58;97344.59;;;-5.20;71.02
46392;BME280;32098;49.448;7.904;2022-12-13T14:45:26;97344.75;;;-5.22;71.36
46392;BME280;32098;49.448;7.904;2022-12-13T14:48:00;97337.16;;;-5.41;72.71
46392;BME280;32098;49.448;7.904;2022-12-13T14:50:33;97331.84;;;-5.31;71.94
46392;BME280;32098;49.448;7.904;2022-12-13T14:53:03;97291.53;;;-5.53;72.28
46392;BME280;32098;49.448;7.904;2022-12-13T14:55:35;97214.53;;;-6.15;72.64
46392;BME280;32098;49.448;7.904;2022-12-13T14:58:15;97307.41;;;-5.38;72.38
46392;BME280;32098;49.448;7.904;2022-12-13T15:00:43;97299.75;;;-5.40;72.57
46392;BME280;32098;49.448;7.904;2022-12-13T15:03:22;97239.53;;;-5.96;73.17
46392;BME280;32098;49.448;7.904;2022-12-13T15:05:58;97307.47;;;-5.48;72.27
46392;BME280;32098;49.448;7.904;2022-12-13T15:08:26;97247.91;;;-5.85;72.67
46392;BME280;32098;49.448;7.904;2022-12-13T15:10:55;97316.56;;;-5.52;72.95
46392;BME280;32098;49.448;7.904;2022-12-13T15:15:57;97298.84;;;-5.74;73.30